Explora — IXWQ — position and weather

sailwx.info

Track history (hours):
 
Tides and Currents Weather Stations Pressure Air Temp Water Temp Dewpoint Dewpoint Depression Visibility Wind Speed Wind Dir Waves Ship Positions

Oceanographic research ship Explora (Italy)

Detailed information on ship capabilities available from University of Delaware's Ocean Information Center.

Last reported at 2015-Feb-13 05:25 UTC. Time now 2015-Mar-30 01:03 UTC.
Position N 36°38' E 014°48'.
Warning: this ship's position is 44 days out of date.

Length 73 m; draft 5.5 m.

Type: Dredging. MMSI: 247028700.

Date/timePositionNaut miles runAvg speedWind from/ knotsBaromVisibWave heightAir tempDewpointWater temp
2015-Feb-13 05:25N 36°38' E 014°48'8 9.2
2015-Feb-13 04:33N 36°40' E 014°39'9 9.2
2015-Feb-13 03:33N 36°43' E 014°28'9 9.5
2015-Feb-13 02:33N 36°48' E 014°18'10 9.7
2015-Feb-13 01:33N 36°52' E 014°07'10 9.9
2015-Feb-13 00:33N 36°57' E 013°56'9 9.3
2015-Feb-12 23:33N 37°01' E 013°45'68 9.2
2015-Feb-12 16:13N 37°31' E 012°29'  
2015-Feb-07 05:32N 36°38' E 013°47'7 7.3
2015-Feb-07 04:33N 36°38' E 013°55'7 7.4
2015-Feb-07 03:33N 36°38' E 014°05'8 7.8
2015-Feb-07 02:33N 36°37' E 014°14'8 7.7
2015-Feb-07 01:33N 36°36' E 014°24'8 8.3
2015-Feb-07 00:33N 36°36' E 014°34'14 0.4
2015-Feb-05 14:04N 36°30' E 014°49'10 6.7
2015-Feb-05 12:33N 36°30' E 014°37'6 6.4
2015-Feb-05 11:33N 36°31' E 014°29'1 1.1
2015-Feb-05 10:33N 36°30' E 014°30'1 1.2
2015-Feb-05 09:33N 36°30' E 014°31'2 1.5
2015-Feb-05 08:30N 36°30' E 014°33'2 1.6
2015-Feb-05 07:10N 36°29' E 014°36'0 0.0
2015-Feb-05 06:26N 36°29' E 014°36'13 2.3
2015-Feb-05 00:27N 36°25' E 014°52'2 2.3
2015-Feb-04 23:32N 36°24' E 014°54'3 2.8
2015-Feb-04 22:33N 36°24' E 014°58'3 1.9
2015-Feb-04 21:07N 36°24' E 015°01'2 2.8
2015-Feb-04 20:31N 36°24' E 015°03'2 2.0
2015-Feb-04 19:31N 36°24' E 015°05'3 2.4
2015-Feb-04 18:26N 36°25' E 015°09'1 1.5
2015-Feb-04 17:33N 36°25' E 015°10'2 2.4
2015-Feb-04 16:32N 36°27' E 015°13'  
Track history (hours):
 
Tides and Currents Weather Stations Pressure Air Temp Water Temp Dewpoint Dewpoint Depression Visibility Wind Speed Wind Dir Waves Ship Positions

Oceanographic research ship Explora (Italy)

Detailed information on ship capabilities available from University of Delaware's Ocean Information Center.

Last reported at 2015-Feb-13 05:25 UTC. Time now 2015-Mar-30 01:03 UTC.
Position N 36°38' E 014°48'.
Warning: this ship's position is 44 days out of date.

Length 73 m; draft 5.5 m.

Type: Dredging. MMSI: 247028700.

Date/timePositionNaut miles runAvg speedWind from/ knotsBaromVisibWave heightAir tempDewpointWater temp
2015-Feb-13 05:25N 36°38' E 014°48'8 9.2
2015-Feb-13 04:33N 36°40' E 014°39'9 9.2
2015-Feb-13 03:33N 36°43' E 014°28'9 9.5
2015-Feb-13 02:33N 36°48' E 014°18'10 9.7
2015-Feb-13 01:33N 36°52' E 014°07'10 9.9
2015-Feb-13 00:33N 36°57' E 013°56'9 9.3
2015-Feb-12 23:33N 37°01' E 013°45'68 9.2
2015-Feb-12 16:13N 37°31' E 012°29'  
2015-Feb-07 05:32N 36°38' E 013°47'7 7.3
2015-Feb-07 04:33N 36°38' E 013°55'7 7.4
2015-Feb-07 03:33N 36°38' E 014°05'8 7.8
2015-Feb-07 02:33N 36°37' E 014°14'8 7.7
2015-Feb-07 01:33N 36°36' E 014°24'8 8.3
2015-Feb-07 00:33N 36°36' E 014°34'14 0.4
2015-Feb-05 14:04N 36°30' E 014°49'10 6.7
2015-Feb-05 12:33N 36°30' E 014°37'6 6.4
2015-Feb-05 11:33N 36°31' E 014°29'1 1.1
2015-Feb-05 10:33N 36°30' E 014°30'1 1.2
2015-Feb-05 09:33N 36°30' E 014°31'2 1.5
2015-Feb-05 08:30N 36°30' E 014°33'2 1.6
2015-Feb-05 07:10N 36°29' E 014°36'0 0.0
2015-Feb-05 06:26N 36°29' E 014°36'13 2.3
2015-Feb-05 00:27N 36°25' E 014°52'2 2.3
2015-Feb-04 23:32N 36°24' E 014°54'3 2.8
2015-Feb-04 22:33N 36°24' E 014°58'3 1.9
2015-Feb-04 21:07N 36°24' E 015°01'2 2.8
2015-Feb-04 20:31N 36°24' E 015°03'2 2.0
2015-Feb-04 19:31N 36°24' E 015°05'3 2.4
2015-Feb-04 18:26N 36°25' E 015°09'1 1.5
2015-Feb-04 17:33N 36°25' E 015°10'2 2.4
2015-Feb-04 16:32N 36°27' E 015°13'  

Dump ship's entire track history